Terminal Aerodrome Forecast
Issued by NWS

Home | Current Version | Previous Version | Text Only | Print | Product List | Glossary On
Versions: 1 2 3 4 5 6 7 8 9 10 11 12 13 14 15
000
FTUS45 KGJT 250533
TAFEGE
TAF
KEGE 250533Z 2506/2606 10006KT P6SM SKC
     FM252000 27004KT P6SM FEW250
     FM260100 34006KT P6SM FEW250
     FM260300 05004KT P6SM SKC
      AMD LTD TO CLD VIS AND WIND TIL 251300=

USA.gov is the U.S. government's official web portal to all federal, state and local government web resources and services.